Time;durP1;ratioP1;P1;durP2;ratioP2;P2;SDS_P1;SDS_P2;PMS_P1;PMS_P2;Temp;Humidity;BMP_temperature;BMP_pressure;BME280_temperature;BME280_humidity;BME280_pressure;Samples;Min_cycle;Max_cycle;Signal;HPM_P1;HPM_P2
2023/09/29 00:00:51;;;;;;;9.70;4.53;;;16.70;99.90;;;;;;4990266;28;20026;-72
2023/09/29 00:03:17;;;;;;;12.70;5.65;;;16.60;99.90;;;;;;4988326;28;20037;-72
2023/09/29 00:05:46;;;;;;;8.75;4.63;;;16.60;99.90;;;;;;4991469;28;20121;-73
2023/09/29 00:08:16;;;;;;;13.15;5.57;;;16.60;99.90;;;;;;4996168;28;20444;-73
2023/09/29 00:10:45;;;;;;;8.20;5.18;;;16.60;99.90;;;;;;4988132;28;20018;-73
2023/09/29 00:13:12;;;;;;;10.80;5.00;;;16.50;99.90;;;;;;4990181;28;20117;-72
2023/09/29 00:15:38;;;;;;;10.80;4.45;;;16.30;99.90;;;;;;4993878;28;20476;-73
2023/09/29 00:18:05;;;;;;;8.07;5.70;;;16.30;99.90;;;;;;4993830;28;20076;-72
2023/09/29 00:20:31;;;;;;;11.02;4.72;;;16.30;99.90;;;;;;4992010;28;20045;-73
2023/09/29 00:23:00;;;;;;;8.48;5.22;;;16.40;99.90;;;;;;4992637;28;20023;-73
2023/09/29 00:25:26;;;;;;;12.15;5.07;;;16.50;99.90;;;;;;4998612;28;20043;-72
2023/09/29 00:27:53;;;;;;;13.38;5.97;;;16.50;99.90;;;;;;4992861;28;20388;-72
2023/09/29 00:30:19;;;;;;;6.43;4.47;;;16.60;99.90;;;;;;4994940;28;20358;-73
2023/09/29 00:32:50;;;;;;;9.13;4.65;;;16.50;99.90;;;;;;5000680;28;20026;-73
2023/09/29 00:35:27;;;;;;;12.00;5.15;;;16.40;99.90;;;;;;4995857;28;20105;-72
2023/09/29 00:38:00;;;;;;;11.55;5.90;;;16.30;99.90;;;;;;4994167;28;20089;-72
2023/09/29 00:40:27;;;;;;;9.00;6.03;;;16.20;99.90;;;;;;4994556;28;20030;-73
2023/09/29 00:42:53;;;;;;;9.27;5.50;;;16.30;99.90;;;;;;4995767;28;20042;-73
2023/09/29 00:45:25;;;;;;;9.10;4.68;;;16.30;99.90;;;;;;4995464;28;20046;-72
2023/09/29 00:47:57;;;;;;;7.53;4.60;;;16.40;99.90;;;;;;4996894;28;20041;-72
2023/09/29 00:50:27;;;;;;;10.88;5.32;;;16.60;99.90;;;;;;5001203;28;20026;-72
2023/09/29 00:52:58;;;;;;;10.10;5.50;;;16.80;99.90;;;;;;5002550;28;20036;-72
2023/09/29 00:55:27;;;;;;;11.60;5.40;;;17.00;99.90;;;;;;4998567;28;20366;-73
2023/09/29 00:57:56;;;;;;;10.60;4.93;;;17.00;99.90;;;;;;4995594;28;20467;-73
2023/09/29 01:02:55;;;;;;;9.50;4.30;;;16.80;99.90;;;;;;4995494;28;20536;-72
2023/09/29 01:05:21;;;;;;;7.60;5.03;;;16.90;99.90;;;;;;4995269;28;20065;-73
2023/09/29 01:07:47;;;;;;;7.90;4.18;;;16.80;99.90;;;;;;5002574;28;20432;-73
2023/09/29 01:10:13;;;;;;;8.30;4.70;;;16.90;99.90;;;;;;4999279;28;20476;-72
2023/09/29 01:12:40;;;;;;;7.28;4.80;;;16.90;99.90;;;;;;4993086;28;20038;-73
2023/09/29 01:15:07;;;;;;;7.75;5.07;;;16.90;99.90;;;;;;4997802;28;20428;-73
2023/09/29 01:17:33;;;;;;;11.27;5.20;;;16.90;99.90;;;;;;5001812;28;20504;-72
2023/09/29 01:19:58;;;;;;;10.00;4.95;;;17.00;99.90;;;;;;4993421;28;20034;-72
2023/09/29 01:22:26;;;;;;;13.18;5.75;;;16.90;99.90;;;;;;4994615;28;20026;-72
2023/09/29 01:24:51;;;;;;;7.97;5.07;;;16.80;99.90;;;;;;4999697;28;20136;-72
2023/09/29 01:27:17;;;;;;;8.57;5.03;;;16.60;99.90;;;;;;5007355;28;20050;-73
2023/09/29 01:29:43;;;;;;;14.50;6.05;;;16.50;99.90;;;;;;4994464;28;20477;-75
2023/09/29 01:32:14;;;;;;;9.23;5.97;;;16.30;99.90;;;;;;4994970;28;20097;-73
2023/09/29 01:34:40;;;;;;;8.40;5.25;;;16.20;99.90;;;;;;4995460;28;20637;-74
2023/09/29 01:37:07;;;;;;;9.48;5.38;;;16.00;99.90;;;;;;5000943;28;20101;-73
2023/09/29 01:39:34;;;;;;;11.23;5.40;;;16.00;99.90;;;;;;4993395;28;20172;-72
2023/09/29 01:42:00;;;;;;;9.15;5.63;;;16.20;99.90;;;;;;4991384;28;20417;-73
2023/09/29 01:44:25;;;;;;;11.32;5.82;;;16.10;99.90;;;;;;4990576;28;20069;-74
2023/09/29 01:46:51;;;;;;;10.88;5.65;;;16.10;99.90;;;;;;4998015;28;20428;-73
2023/09/29 01:49:16;;;;;;;8.20;5.53;;;15.90;99.90;;;;;;4990864;28;20049;-72
2023/09/29 01:51:45;;;;;;;8.23;5.32;;;16.00;99.90;;;;;;4990616;28;20479;-72
2023/09/29 01:54:11;;;;;;;7.38;5.43;;;16.00;99.90;;;;;;4992708;28;20029;-73
2023/09/29 01:56:36;;;;;;;10.90;5.90;;;16.00;99.90;;;;;;4992175;28;20022;-73
2023/09/29 01:59:02;;;;;;;9.32;5.28;;;15.90;99.90;;;;;;4996300;28;20133;-73
2023/09/29 02:01:29;;;;;;;9.35;5.53;;;15.90;99.90;;;;;;4994019;28;20035;-72
2023/09/29 02:03:55;;;;;;;8.13;4.93;;;16.00;99.90;;;;;;4992559;28;20030;-73
2023/09/29 02:06:21;;;;;;;8.23;5.53;;;16.00;99.90;;;;;;4990762;28;20473;-74
2023/09/29 02:08:46;;;;;;;8.23;5.22;;;16.10;99.90;;;;;;4991998;28;20026;-72
2023/09/29 02:11:12;;;;;;;11.60;6.63;;;16.10;99.90;;;;;;4990303;28;21354;-73
2023/09/29 02:13:38;;;;;;;9.07;5.30;;;16.00;99.90;;;;;;4992487;28;20028;-74
2023/09/29 02:16:15;;;;;;;10.82;5.70;;;15.90;99.90;;;;;;4995799;28;20026;-72
2023/09/29 02:18:41;;;;;;;13.00;5.20;;;15.80;99.90;;;;;;4994232;28;20030;-72
2023/09/29 02:21:08;;;;;;;9.85;5.97;;;15.90;99.90;;;;;;4996238;28;20281;-74
2023/09/29 02:23:33;;;;;;;10.65;5.32;;;15.80;99.90;;;;;;4998232;28;20030;-72
2023/09/29 02:26:00;;;;;;;10.18;5.70;;;15.80;99.90;;;;;;4991246;28;20029;-72
2023/09/29 02:28:30;;;;;;;10.10;5.63;;;15.90;99.90;;;;;;4989661;28;20030;-73
2023/09/29 02:31:03;;;;;;;11.18;6.03;;;16.00;99.90;;;;;;4991085;28;20035;-75
2023/09/29 02:33:30;;;;;;;12.60;5.18;;;16.10;99.90;;;;;;4990429;28;20417;-73
2023/09/29 02:35:56;;;;;;;10.75;5.18;;;16.00;99.90;;;;;;4988587;28;20388;-72
2023/09/29 02:38:23;;;;;;;8.35;5.68;;;15.90;99.90;;;;;;4990655;28;20022;-73
2023/09/29 02:40:50;;;;;;;9.77;6.00;;;15.70;99.90;;;;;;4993641;28;20057;-73
2023/09/29 02:43:16;;;;;;;7.47;5.78;;;15.70;99.90;;;;;;5007946;28;20026;-73
2023/09/29 02:45:42;;;;;;;8.82;4.90;;;15.50;99.90;;;;;;4996707;28;20049;-72
2023/09/29 02:48:07;;;;;;;10.52;5.00;;;15.30;99.90;;;;;;4997086;28;20037;-72
2023/09/29 02:50:36;;;;;;;9.57;5.35;;;15.30;99.90;;;;;;4997028;28;20030;-73
2023/09/29 02:53:05;;;;;;;11.13;5.65;;;15.40;99.90;;;;;;4990830;28;20033;-73
2023/09/29 02:55:31;;;;;;;9.48;5.60;;;15.50;99.90;;;;;;4990474;28;20408;-72
2023/09/29 02:57:56;;;;;;;7.80;5.10;;;15.50;99.90;;;;;;4990055;28;20104;-73
2023/09/29 03:00:26;;;;;;;9.57;4.93;;;15.60;99.90;;;;;;4996809;28;20077;-73
2023/09/29 03:02:52;;;;;;;9.13;4.85;;;15.60;99.90;;;;;;4987475;28;20030;-73
2023/09/29 03:05:22;;;;;;;13.52;5.78;;;15.60;99.90;;;;;;4982753;28;20801;-75
2023/09/29 03:07:47;;;;;;;13.45;5.50;;;15.60;99.90;;;;;;4984999;28;20038;-73
2023/09/29 03:10:15;;;;;;;11.90;5.65;;;15.60;99.90;;;;;;4983909;28;20029;-72
2023/09/29 03:12:42;;;;;;;8.82;5.05;;;15.50;99.90;;;;;;4999137;28;20032;-72
2023/09/29 03:15:09;;;;;;;12.77;5.47;;;15.60;99.90;;;;;;4990341;28;20563;-73
2023/09/29 03:17:36;;;;;;;10.27;5.70;;;15.60;99.90;;;;;;4984800;28;20538;-74
2023/09/29 03:20:09;;;;;;;12.55;5.72;;;15.50;99.90;;;;;;4981859;28;20026;-73
2023/09/29 03:22:37;;;;;;;10.68;5.88;;;15.30;99.90;;;;;;4988254;28;20030;-72
2023/09/29 03:25:06;;;;;;;12.90;5.55;;;15.20;99.90;;;;;;4983773;28;20018;-73
2023/09/29 03:27:34;;;;;;;8.50;5.63;;;15.10;99.90;;;;;;4988049;28;20526;-73
2023/09/29 03:30:00;;;;;;;11.85;5.95;;;15.00;99.90;;;;;;4992446;28;20030;-73
2023/09/29 03:32:26;;;;;;;10.73;6.15;;;15.00;99.90;;;;;;4985087;28;20759;-74
2023/09/29 03:34:52;;;;;;;9.50;5.88;;;15.10;99.90;;;;;;4988206;28;20038;-73
2023/09/29 03:37:19;;;;;;;11.75;5.60;;;15.20;99.90;;;;;;4989400;28;20034;-73
2023/09/29 03:39:47;;;;;;;10.35;5.90;;;15.20;99.90;;;;;;4989586;28;20033;-72
2023/09/29 03:42:14;;;;;;;10.07;5.68;;;15.20;99.90;;;;;;4995132;28;20032;-72
2023/09/29 03:44:39;;;;;;;9.40;6.10;;;15.20;99.90;;;;;;4990794;28;20161;-73
2023/09/29 03:47:05;;;;;;;9.98;6.18;;;15.10;99.90;;;;;;4987929;28;20054;-72
2023/09/29 03:49:31;;;;;;;9.02;5.18;;;15.10;99.90;;;;;;4989716;28;20034;-72
2023/09/29 03:51:57;;;;;;;9.00;5.43;;;15.10;99.90;;;;;;4991394;28;20101;-71
2023/09/29 03:54:23;;;;;;;15.00;5.82;;;15.00;99.90;;;;;;4987614;28;20125;-72
2023/09/29 03:56:51;;;;;;;12.13;5.95;;;14.90;99.90;;;;;;4989038;28;20084;-72
2023/09/29 03:59:18;;;;;;;8.18;5.55;;;14.90;99.90;;;;;;4984972;28;20049;-72
2023/09/29 04:01:44;;;;;;;9.43;5.85;;;14.90;99.90;;;;;;4992008;28;23361;-72
2023/09/29 04:04:10;;;;;;;10.02;6.18;;;14.70;99.90;;;;;;4988799;28;20582;-72
2023/09/29 04:06:36;;;;;;;11.85;5.57;;;14.80;99.90;;;;;;4988295;28;20121;-72
2023/09/29 04:09:03;;;;;;;12.77;6.43;;;14.90;99.90;;;;;;4981348;28;20058;-73
2023/09/29 04:11:30;;;;;;;7.55;5.32;;;14.80;99.90;;;;;;4987892;28;20040;-72
2023/09/29 04:13:56;;;;;;;9.75;5.70;;;15.00;99.90;;;;;;4985212;28;20030;-72
2023/09/29 04:16:22;;;;;;;11.10;5.47;;;14.80;99.90;;;;;;4989139;28;20026;-72
2023/09/29 04:18:48;;;;;;;16.83;5.53;;;14.70;99.90;;;;;;4982794;28;20501;-72
2023/09/29 04:21:15;;;;;;;11.32;6.35;;;14.90;99.90;;;;;;4983331;28;20057;-72
2023/09/29 04:23:41;;;;;;;9.95;5.97;;;14.90;99.90;;;;;;4983986;28;20037;-73
2023/09/29 04:26:19;;;;;;;8.85;5.47;;;14.90;99.90;;;;;;4986575;28;20112;-73
2023/09/29 04:28:50;;;;;;;14.30;6.13;;;14.80;99.90;;;;;;4987604;28;20084;-72
2023/09/29 04:31:16;;;;;;;8.25;5.95;;;14.90;99.90;;;;;;4983625;28;20045;-73
2023/09/29 04:33:43;;;;;;;10.90;6.10;;;14.80;99.90;;;;;;4981386;28;20030;-72
2023/09/29 04:36:09;;;;;;;8.15;5.60;;;14.80;99.90;;;;;;4981708;28;20640;-72
2023/09/29 04:38:36;;;;;;;11.73;5.95;;;14.80;99.90;;;;;;4985900;28;20037;-71
2023/09/29 04:41:02;;;;;;;12.30;6.75;;;14.80;99.90;;;;;;4981765;28;20031;-73
2023/09/29 04:43:28;;;;;;;12.00;5.80;;;14.70;99.90;;;;;;4981208;28;20457;-73
2023/09/29 04:45:55;;;;;;;10.40;6.22;;;14.60;99.90;;;;;;4982932;28;20150;-72
2023/09/29 04:48:21;;;;;;;18.45;7.25;;;14.70;99.90;;;;;;4980339;28;20096;-72
2023/09/29 04:50:47;;;;;;;10.02;6.30;;;14.70;99.90;;;;;;4980971;28;20030;-74
2023/09/29 04:53:12;;;;;;;10.75;6.07;;;14.80;99.90;;;;;;4984223;28;20874;-72
2023/09/29 04:55:38;;;;;;;9.20;5.45;;;14.70;99.90;;;;;;4985827;28;20085;-73
2023/09/29 04:58:04;;;;;;;12.07;5.68;;;14.60;99.90;;;;;;4986768;28;20248;-72
2023/09/29 05:00:30;;;;;;;9.05;6.03;;;14.70;99.90;;;;;;4983550;28;20034;-72
2023/09/29 05:02:55;;;;;;;12.35;6.13;;;14.60;99.90;;;;;;4983493;28;20030;-72
2023/09/29 05:05:21;;;;;;;9.88;5.63;;;14.50;99.90;;;;;;4990299;28;20095;-72
2023/09/29 05:07:47;;;;;;;12.82;6.32;;;14.40;99.90;;;;;;4986218;28;20026;-72
2023/09/29 05:10:13;;;;;;;9.32;5.55;;;14.30;99.90;;;;;;4983548;28;20508;-73
2023/09/29 05:12:40;;;;;;;8.43;5.95;;;14.20;99.90;;;;;;4985373;28;20026;-72
2023/09/29 05:15:07;;;;;;;11.32;6.50;;;14.10;99.90;;;;;;4984605;28;20049;-73
2023/09/29 05:17:34;;;;;;;10.80;6.10;;;14.20;99.90;;;;;;4996035;28;20333;-71
2023/09/29 05:20:00;;;;;;;9.57;5.57;;;14.30;99.90;;;;;;4984520;28;20548;-73
2023/09/29 05:22:25;;;;;;;8.02;5.47;;;14.40;99.90;;;;;;4985676;28;20249;-72
2023/09/29 05:24:53;;;;;;;11.55;5.85;;;14.50;99.90;;;;;;4989164;28;20037;-72
2023/09/29 05:27:20;;;;;;;10.35;6.03;;;14.40;99.90;;;;;;4989637;28;20042;-73
2023/09/29 05:29:45;;;;;;;10.93;5.13;;;14.60;99.90;;;;;;4997243;28;20496;-72
2023/09/29 05:32:11;;;;;;;12.43;5.47;;;14.60;99.90;;;;;;4997256;28;20022;-71
2023/09/29 05:34:37;;;;;;;8.90;5.32;;;14.70;99.90;;;;;;4994990;28;20037;-73
2023/09/29 05:37:03;;;;;;;10.95;5.82;;;14.50;99.90;;;;;;4998490;28;20090;-72
2023/09/29 05:39:28;;;;;;;8.77;5.82;;;14.30;99.90;;;;;;4991702;28;20025;-73
2023/09/29 05:41:54;;;;;;;9.32;5.97;;;14.30;99.90;;;;;;4986313;28;20040;-73
2023/09/29 05:44:19;;;;;;;10.13;5.80;;;14.20;99.90;;;;;;4988212;28;20153;-73
2023/09/29 05:46:45;;;;;;;12.02;5.60;;;14.30;99.90;;;;;;4987687;28;20046;-72
2023/09/29 05:49:11;;;;;;;11.63;6.25;;;14.50;99.90;;;;;;4991285;28;20049;-73
2023/09/29 05:51:37;;;;;;;14.98;6.85;;;14.60;99.90;;;;;;4988685;28;20077;-72
2023/09/29 05:54:03;;;;;;;11.50;6.38;;;14.70;99.90;;;;;;4990631;28;20764;-72
2023/09/29 05:56:31;;;;;;;10.57;6.10;;;14.70;99.90;;;;;;4991201;28;20050;-73
2023/09/29 05:58:58;;;;;;;10.68;5.63;;;14.70;99.90;;;;;;4991268;28;20046;-72
2023/09/29 06:01:25;;;;;;;11.52;6.05;;;14.70;99.90;;;;;;4988766;28;20021;-72
2023/09/29 06:03:52;;;;;;;7.85;5.78;;;14.80;99.90;;;;;;4993924;28;20036;-71
2023/09/29 06:06:18;;;;;;;8.70;5.75;;;14.70;99.90;;;;;;5001841;28;20539;-72
2023/09/29 06:08:44;;;;;;;11.60;5.93;;;14.80;99.90;;;;;;4987999;28;20036;-72
2023/09/29 06:11:11;;;;;;;8.52;5.47;;;14.70;99.90;;;;;;4989132;28;20112;-72
2023/09/29 06:13:37;;;;;;;8.82;6.03;;;14.70;99.90;;;;;;4988690;28;20044;-72
2023/09/29 06:16:04;;;;;;;8.68;5.30;;;14.70;99.90;;;;;;4992193;28;20089;-73
2023/09/29 06:18:30;;;;;;;9.45;6.20;;;14.70;99.90;;;;;;4988579;28;20415;-72
2023/09/29 06:20:56;;;;;;;13.10;6.82;;;14.80;99.90;;;;;;4988154;28;20042;-73
2023/09/29 06:23:21;;;;;;;12.02;6.38;;;14.80;99.90;;;;;;4988120;28;20061;-72
2023/09/29 06:25:55;;;;;;;10.02;6.85;;;14.90;99.90;;;;;;4988175;28;20038;-73
2023/09/29 06:28:20;;;;;;;14.18;6.85;;;15.00;99.90;;;;;;4988327;28;20034;-73
2023/09/29 06:30:46;;;;;;;9.57;5.82;;;15.00;99.90;;;;;;4984889;28;20163;-73
2023/09/29 06:33:12;;;;;;;13.18;6.30;;;15.00;99.90;;;;;;4985398;28;20041;-73
2023/09/29 06:35:39;;;;;;;16.00;6.65;;;15.00;99.90;;;;;;4988956;28;20043;-72
2023/09/29 06:38:05;;;;;;;10.73;6.70;;;15.10;99.90;;;;;;4984920;28;20501;-73
2023/09/29 06:40:30;;;;;;;8.13;5.75;;;15.10;99.90;;;;;;4985127;28;20041;-72
2023/09/29 06:42:56;;;;;;;11.05;6.43;;;15.20;99.90;;;;;;4985107;28;20428;-72
2023/09/29 06:45:22;;;;;;;11.88;6.30;;;15.30;99.90;;;;;;4986289;28;20136;-72
2023/09/29 06:47:48;;;;;;;13.45;6.55;;;15.40;99.90;;;;;;4992879;28;20038;-73
2023/09/29 06:50:13;;;;;;;9.80;5.93;;;15.40;99.90;;;;;;4984695;28;20069;-73
2023/09/29 06:52:40;;;;;;;11.90;7.15;;;15.40;99.90;;;;;;4982231;28;20169;-73
2023/09/29 06:55:06;;;;;;;10.95;6.43;;;15.40;99.90;;;;;;4986322;28;20109;-72
2023/09/29 06:57:32;;;;;;;16.02;8.40;;;15.30;99.90;;;;;;4992473;28;20041;-72
2023/09/29 06:59:57;;;;;;;13.32;7.00;;;15.10;99.90;;;;;;4985154;28;20046;-72
2023/09/29 07:02:23;;;;;;;10.98;7.85;;;15.00;99.90;;;;;;4994484;28;20083;-72
2023/09/29 07:04:49;;;;;;;13.80;7.88;;;14.90;99.90;;;;;;4986872;28;20366;-72
2023/09/29 07:07:15;;;;;;;14.88;7.95;;;14.90;99.90;;;;;;4983768;28;20034;-73
2023/09/29 07:09:42;;;;;;;12.90;8.85;;;15.00;99.90;;;;;;4987475;28;20034;-72
2023/09/29 07:12:07;;;;;;;13.18;7.50;;;15.10;99.90;;;;;;4982961;28;20117;-73
2023/09/29 07:14:33;;;;;;;12.05;7.20;;;15.20;99.90;;;;;;4983965;28;20449;-72
2023/09/29 07:16:58;;;;;;;10.93;7.35;;;15.20;99.90;;;;;;4984689;28;20028;-74
2023/09/29 07:19:24;;;;;;;14.23;7.13;;;15.30;99.90;;;;;;4983881;28;20050;-72
2023/09/29 07:21:50;;;;;;;14.15;7.60;;;15.30;99.90;;;;;;4995223;28;20531;-73
2023/09/29 07:24:16;;;;;;;11.63;7.10;;;15.40;99.90;;;;;;4987260;28;20030;-72
2023/09/29 07:26:42;;;;;;;10.45;6.70;;;15.50;99.90;;;;;;4990157;28;20061;-73
2023/09/29 07:29:08;;;;;;;11.20;6.07;;;15.60;99.90;;;;;;4988145;28;20480;-72
2023/09/29 07:31:46;;;;;;;10.65;6.55;;;15.70;99.90;;;;;;4992722;28;20350;-74
2023/09/29 07:34:15;;;;;;;10.32;6.40;;;15.80;99.90;;;;;;4989959;28;20088;-74
2023/09/29 07:36:44;;;;;;;12.48;7.32;;;15.80;99.90;;;;;;4988849;28;20042;-73
2023/09/29 07:39:13;;;;;;;13.60;6.60;;;15.60;99.90;;;;;;4989860;28;20031;-74
2023/09/29 07:41:39;;;;;;;11.73;7.38;;;15.60;99.90;;;;;;4990450;28;20082;-73
2023/09/29 07:44:05;;;;;;;9.60;6.28;;;15.60;99.90;;;;;;4997781;28;20077;-73
2023/09/29 07:46:31;;;;;;;10.98;7.10;;;15.70;99.90;;;;;;4987267;28;20073;-72
2023/09/29 07:48:57;;;;;;;15.63;7.15;;;15.80;99.90;;;;;;4991233;28;20049;-73
2023/09/29 07:51:24;;;;;;;11.85;6.35;;;15.80;99.90;;;;;;4993090;28;20031;-72
2023/09/29 07:53:50;;;;;;;13.68;7.22;;;15.90;99.90;;;;;;4995445;28;20057;-72
2023/09/29 07:56:16;;;;;;;12.40;6.80;;;16.00;99.90;;;;;;4994878;28;20104;-73
2023/09/29 07:58:42;;;;;;;11.90;7.82;;;16.00;99.90;;;;;;4999009;28;20045;-72
2023/09/29 08:01:07;;;;;;;12.52;8.63;;;16.10;99.90;;;;;;4989291;28;20112;-72
2023/09/29 08:03:33;;;;;;;15.40;8.82;;;16.10;99.90;;;;;;4986466;28;20029;-72
2023/09/29 08:05:59;;;;;;;13.13;7.90;;;16.00;99.90;;;;;;4991046;28;20097;-72
2023/09/29 08:08:24;;;;;;;10.25;7.10;;;16.10;99.90;;;;;;4993272;28;20454;-72
2023/09/29 08:10:51;;;;;;;10.43;7.45;;;16.10;99.90;;;;;;4987921;28;20899;-73
2023/09/29 08:13:17;;;;;;;13.48;7.28;;;16.30;99.90;;;;;;4983745;28;20046;-72
2023/09/29 08:15:43;;;;;;;10.13;7.00;;;16.30;99.90;;;;;;4983909;28;20058;-74
2023/09/29 08:18:08;;;;;;;15.60;6.60;;;16.40;99.90;;;;;;4982880;28;21121;-72
2023/09/29 08:20:35;;;;;;;12.07;8.27;;;16.40;99.90;;;;;;4990822;28;20064;-73
2023/09/29 08:23:00;;;;;;;23.75;8.68;;;16.50;99.90;;;;;;4986746;28;20976;-72
2023/09/29 08:25:26;;;;;;;12.82;6.88;;;16.60;99.90;;;;;;4979195;28;20124;-73
2023/09/29 08:27:52;;;;;;;16.73;7.85;;;16.50;99.90;;;;;;4981931;28;20022;-72
2023/09/29 08:30:17;;;;;;;12.00;7.43;;;16.50;99.90;;;;;;4985617;28;20044;-73
2023/09/29 08:32:43;;;;;;;14.73;6.80;;;16.60;99.90;;;;;;4979726;28;20169;-72
2023/09/29 08:35:15;;;;;;;11.05;7.07;;;16.80;99.90;;;;;;4981062;28;20041;-73
2023/09/29 08:37:42;;;;;;;12.10;7.47;;;16.90;99.90;;;;;;4980516;28;20749;-73
2023/09/29 08:40:12;;;;;;;14.68;7.53;;;16.80;99.90;;;;;;4983003;28;20030;-73
2023/09/29 08:42:39;;;;;;;15.68;7.63;;;16.80;99.90;;;;;;4980664;28;20022;-74
2023/09/29 08:45:09;;;;;;;12.90;7.45;;;16.80;99.90;;;;;;4992068;28;20026;-73
2023/09/29 08:47:36;;;;;;;13.05;7.43;;;16.90;99.90;;;;;;4977314;28;20109;-73
2023/09/29 08:50:06;;;;;;;13.32;7.70;;;17.00;99.90;;;;;;4984508;28;20050;-73
2023/09/29 08:52:35;;;;;;;13.70;7.10;;;17.00;99.90;;;;;;4985157;28;20469;-73
2023/09/29 08:55:04;;;;;;;10.98;6.80;;;17.10;99.90;;;;;;4985296;28;20488;-73
2023/09/29 08:57:30;;;;;;;11.23;7.60;;;17.30;99.90;;;;;;4994028;28;20373;-74
2023/09/29 08:59:56;;;;;;;22.27;8.43;;;17.40;99.90;;;;;;4988474;28;20045;-74
2023/09/29 09:02:26;;;;;;;11.95;6.07;;;17.40;99.90;;;;;;4986504;28;20026;-73
2023/09/29 09:04:52;;;;;;;11.48;7.07;;;17.50;99.90;;;;;;4985780;28;20185;-73
2023/09/29 09:07:19;;;;;;;12.30;7.55;;;17.60;99.90;;;;;;4988024;28;20065;-74
2023/09/29 09:09:50;;;;;;;14.23;6.90;;;17.70;99.90;;;;;;4989144;28;20354;-73
2023/09/29 09:12:17;;;;;;;11.65;7.05;;;17.70;99.90;;;;;;4986311;28;20105;-73
2023/09/29 09:14:46;;;;;;;11.10;6.65;;;17.80;99.90;;;;;;4983903;28;20034;-73
2023/09/29 09:17:12;;;;;;;10.40;6.20;;;17.80;99.90;;;;;;4987114;28;20026;-73
2023/09/29 09:19:47;;;;;;;9.80;6.93;;;17.80;99.90;;;;;;4985915;28;20045;-75
2023/09/29 09:22:18;;;;;;;9.55;5.97;;;17.90;99.90;;;;;;4983612;28;20054;-74
2023/09/29 09:24:44;;;;;;;15.13;6.80;;;18.20;99.90;;;;;;4983669;28;20041;-74
2023/09/29 09:27:11;;;;;;;10.52;6.30;;;18.30;99.90;;;;;;4987956;28;20068;-74
2023/09/29 09:29:46;;;;;;;9.38;6.97;;;18.50;99.90;;;;;;4985842;28;20040;-73
2023/09/29 09:32:12;;;;;;;10.10;7.38;;;18.60;99.90;;;;;;4985849;28;20065;-74
2023/09/29 09:34:39;;;;;;;10.88;5.47;;;18.90;99.90;;;;;;4990971;28;20026;-74
2023/09/29 09:37:11;;;;;;;8.45;6.05;;;18.90;99.90;;;;;;4992523;28;20091;-74
2023/09/29 09:39:38;;;;;;;14.73;7.15;;;18.90;99.90;;;;;;4984352;28;20029;-73
2023/09/29 09:42:05;;;;;;;15.35;6.63;;;18.80;99.90;;;;;;4984822;28;20026;-73
2023/09/29 09:44:32;;;;;;;13.27;6.85;;;18.90;99.90;;;;;;4987186;28;20041;-74
2023/09/29 09:47:03;;;;;;;16.55;6.50;;;19.10;99.90;;;;;;4986414;28;20964;-72
2023/09/29 09:49:36;;;;;;;11.00;6.85;;;19.30;99.90;;;;;;4990334;28;20073;-75
2023/09/29 09:52:06;;;;;;;11.80;6.50;;;19.30;99.90;;;;;;4987420;28;20038;-73
2023/09/29 09:54:39;;;;;;;10.43;6.40;;;19.30;99.90;;;;;;4987754;28;20062;-73
2023/09/29 09:57:08;;;;;;;13.38;7.18;;;19.50;99.90;;;;;;4985630;28;20042;-72
2023/09/29 09:59:35;;;;;;;9.73;6.40;;;19.50;99.90;;;;;;4985798;28;20078;-73
2023/09/29 10:02:06;;;;;;;11.02;7.00;;;19.50;99.90;;;;;;4992337;28;20109;-72
2023/09/29 10:04:35;;;;;;;10.80;6.75;;;19.50;99.90;;;;;;4985522;28;20076;-72
2023/09/29 10:07:03;;;;;;;13.00;6.57;;;19.40;99.90;;;;;;4992251;28;20567;-72
2023/09/29 10:09:43;;;;;;;15.05;6.68;;;19.60;99.90;;;;;;4996259;28;20479;-74
2023/09/29 10:12:21;;;;;;;13.95;6.65;;;19.70;99.90;;;;;;4989390;28;20033;-72
2023/09/29 10:14:46;;;;;;;11.82;7.00;;;19.80;99.90;;;;;;4988516;28;20184;-73
2023/09/29 10:17:13;;;;;;;11.48;6.13;;;19.80;99.90;;;;;;4985752;28;20338;-72
2023/09/29 10:19:39;;;;;;;9.30;7.05;;;19.80;99.90;;;;;;4985705;28;20034;-72
2023/09/29 10:22:06;;;;;;;10.40;6.22;;;19.90;99.90;;;;;;4986872;28;20113;-72
2023/09/29 10:24:33;;;;;;;13.32;6.93;;;20.10;99.90;;;;;;4985411;28;20033;-72
2023/09/29 10:26:59;;;;;;;15.02;6.75;;;20.10;99.90;;;;;;4986407;28;20116;-72
2023/09/29 10:29:34;;;;;;;9.45;6.15;;;20.40;99.90;;;;;;4986877;28;20025;-72
2023/09/29 10:32:10;;;;;;;11.77;6.57;;;20.40;99.90;;;;;;4987180;28;20029;-72
2023/09/29 10:34:37;;;;;;;10.55;5.65;;;20.20;99.90;;;;;;4990392;28;20033;-72
2023/09/29 10:37:02;;;;;;;9.23;5.72;;;20.30;99.90;;;;;;4989088;28;20032;-72
2023/09/29 10:39:29;;;;;;;9.30;5.85;;;20.30;99.90;;;;;;4986455;28;20030;-73
2023/09/29 10:42:00;;;;;;;10.60;6.43;;;20.40;99.90;;;;;;4985584;28;20629;-72
2023/09/29 10:44:28;;;;;;;14.40;6.72;;;20.60;99.90;;;;;;4987548;28;20038;-72
2023/09/29 10:46:54;;;;;;;12.90;7.28;;;20.80;99.90;;;;;;4988441;28;20044;-72
2023/09/29 10:49:29;;;;;;;11.15;7.88;;;21.00;99.90;;;;;;4985892;28;20033;-72
2023/09/29 10:51:56;;;;;;;13.40;8.00;;;21.10;99.90;;;;;;4984986;28;20249;-72
2023/09/29 10:54:23;;;;;;;9.82;6.18;;;21.20;99.90;;;;;;4999034;28;20377;-72
2023/09/29 10:56:49;;;;;;;11.88;6.30;;;21.20;99.90;;;;;;4985861;28;20177;-73
2023/09/29 10:59:15;;;;;;;10.85;5.97;;;21.20;99.90;;;;;;4992519;28;20625;-71
2023/09/29 11:01:44;;;;;;;9.60;5.65;;;21.40;99.90;;;;;;4985253;28;20041;-73
2023/09/29 11:04:10;;;;;;;11.95;5.47;;;21.60;99.90;;;;;;4985807;28;20105;-73
2023/09/29 11:06:52;;;;;;;11.18;5.70;;;21.60;99.90;;;;;;4986959;28;20030;-73
2023/09/29 11:09:20;;;;;;;9.70;6.03;;;22.00;99.90;;;;;;4984606;28;20081;-72
2023/09/29 11:11:46;;;;;;;8.77;5.85;;;22.00;99.90;;;;;;4985503;28;20073;-73
2023/09/29 11:14:12;;;;;;;10.05;5.95;;;22.10;99.90;;;;;;4986182;28;20465;-73
2023/09/29 11:16:38;;;;;;;11.82;5.50;;;22.10;99.90;;;;;;4986463;28;20050;-73
2023/09/29 11:19:10;;;;;;;10.13;5.70;;;22.20;99.90;;;;;;4985588;28;20064;-73
2023/09/29 11:21:37;;;;;;;10.32;6.28;;;22.40;99.90;;;;;;4987649;28;20485;-73
2023/09/29 11:24:05;;;;;;;9.57;6.15;;;22.30;99.90;;;;;;4992590;28;20018;-73
2023/09/29 11:26:31;;;;;;;10.32;6.40;;;22.30;99.90;;;;;;4983328;28;20125;-71
2023/09/29 11:28:58;;;;;;;12.35;5.80;;;22.60;99.90;;;;;;4983069;28;20105;-73
2023/09/29 11:31:24;;;;;;;10.20;6.00;;;22.80;99.90;;;;;;4991657;28;20072;-71
2023/09/29 11:33:51;;;;;;;8.63;6.20;;;22.70;99.90;;;;;;4986627;28;20041;-73
2023/09/29 11:36:23;;;;;;;11.63;5.80;;;22.80;99.90;;;;;;4991185;28;20030;-73
2023/09/29 11:38:50;;;;;;;8.43;5.50;;;22.90;99.90;;;;;;4987939;28;20232;-73
2023/09/29 11:41:17;;;;;;;9.43;5.82;;;22.70;99.90;;;;;;4992632;28;20073;-73
2023/09/29 11:43:45;;;;;;;11.65;6.10;;;22.70;99.90;;;;;;4984006;28;20026;-72
2023/09/29 11:46:14;;;;;;;11.70;4.97;;;22.70;99.90;;;;;;4990164;28;21743;-72
2023/09/29 11:48:40;;;;;;;14.40;5.70;;;22.70;99.90;;;;;;4985050;28;20030;-72
2023/09/29 11:51:08;;;;;;;9.25;5.53;;;23.00;99.90;;;;;;4983865;28;21985;-72
2023/09/29 11:53:34;;;;;;;10.25;6.22;;;23.00;99.90;;;;;;4984489;28;20035;-73
2023/09/29 11:56:00;;;;;;;11.40;5.75;;;23.10;99.90;;;;;;4997270;28;20022;-74
2023/09/29 11:58:26;;;;;;;11.55;6.25;;;23.30;99.90;;;;;;4990902;28;20112;-72
2023/09/29 12:00:52;;;;;;;7.63;5.63;;;23.40;99.90;;;;;;4994384;28;20034;-72
2023/09/29 12:03:21;;;;;;;10.98;6.15;;;23.20;99.90;;;;;;4969465;28;20381;-73
2023/09/29 12:05:49;;;;;;;8.40;5.68;;;23.10;99.90;;;;;;4989683;28;20070;-73
2023/09/29 12:08:16;;;;;;;16.30;6.47;;;23.30;99.90;;;;;;4985460;28;20030;-72
2023/09/29 12:10:42;;;;;;;9.43;5.90;;;23.40;99.90;;;;;;4993941;28;20030;-75
2023/09/29 12:13:10;;;;;;;13.80;6.75;;;23.60;99.90;;;;;;4988306;28;20469;-73
2023/09/29 12:15:36;;;;;;;10.43;5.43;;;23.70;99.90;;;;;;4981792;28;20110;-76
2023/09/29 12:18:02;;;;;;;10.75;5.57;;;23.70;99.90;;;;;;4986978;28;20021;-73
2023/09/29 12:20:28;;;;;;;10.40;5.90;;;23.50;99.70;;;;;;4990148;28;20414;-73
2023/09/29 12:22:55;;;;;;;10.45;5.53;;;23.60;99.80;;;;;;4978077;28;20038;-74
2023/09/29 12:25:21;;;;;;;9.20;4.97;;;23.50;99.30;;;;;;4987031;28;20053;-74
2023/09/29 12:27:50;;;;;;;12.85;5.45;;;23.50;99.00;;;;;;4982205;28;20022;-75
2023/09/29 12:30:17;;;;;;;11.32;5.32;;;23.50;98.90;;;;;;4988761;28;20417;-74
2023/09/29 12:32:44;;;;;;;13.95;6.05;;;23.50;99.10;;;;;;4984294;28;20030;-74
2023/09/29 12:35:12;;;;;;;10.07;5.28;;;23.50;99.00;;;;;;4984707;28;20117;-75
2023/09/29 12:37:44;;;;;;;11.32;5.63;;;23.50;99.50;;;;;;4980537;28;20109;-74
2023/09/29 12:40:11;;;;;;;10.57;5.50;;;23.60;99.80;;;;;;4983168;28;20026;-75
2023/09/29 12:42:40;;;;;;;12.00;5.65;;;23.80;99.20;;;;;;4981917;28;20031;-75